createdAt,value
2022-08-27T00:01:26.368Z,11.35
2022-08-27T00:03:55.033Z,9.18
2022-08-27T00:06:24.656Z,13.18
2022-08-27T00:08:53.882Z,11.25
2022-08-27T00:11:25.046Z,7.83
2022-08-27T00:13:54.834Z,9.70
2022-08-27T00:16:23.967Z,13.20
2022-08-27T00:18:55.599Z,9.88
2022-08-27T00:21:23.701Z,9.68
2022-08-27T00:23:51.793Z,9.40
2022-08-27T00:26:19.455Z,8.55
2022-08-27T00:28:47.318Z,11.48
2022-08-27T00:31:14.961Z,15.72
2022-08-27T00:33:43.395Z,15.65
2022-08-27T00:36:13.216Z,12.58
2022-08-27T00:38:41.803Z,9.58
2022-08-27T00:41:12.530Z,8.40
2022-08-27T00:43:58.023Z,7.67
2022-08-27T00:46:54.052Z,8.70
2022-08-27T00:49:38.700Z,9.78
2022-08-27T00:52:20.555Z,15.55
2022-08-27T00:54:51.888Z,16.65
2022-08-27T00:57:20.247Z,15.03
2022-08-27T00:59:48.510Z,14.73
2022-08-27T01:02:19.184Z,10.95
2022-08-27T01:05:01.690Z,12.45
2022-08-27T01:07:32.027Z,8.75
2022-08-27T01:10:03.246Z,14.20
2022-08-27T01:12:33.270Z,11.68
2022-08-27T01:15:05.478Z,7.78
2022-08-27T01:17:34.097Z,10.03
2022-08-27T01:20:08.302Z,14.38
2022-08-27T01:23:02.459Z,5.92
2022-08-27T01:25:30.729Z,12.82
2022-08-27T01:28:01.313Z,7.60
2022-08-27T01:30:30.921Z,11.03
2022-08-27T01:32:58.814Z,7.40
2022-08-27T01:35:26.994Z,7.50
2022-08-27T01:37:56.980Z,9.83
2022-08-27T01:40:25.337Z,9.13
2022-08-27T01:42:56.385Z,8.05
2022-08-27T01:45:32.018Z,8.35
2022-08-27T01:48:00.262Z,7.40
2022-08-27T01:50:34.046Z,8.73
2022-08-27T01:53:06.913Z,7.05
2022-08-27T01:55:35.002Z,12.58
2022-08-27T01:58:03.279Z,10.38
2022-08-27T02:00:36.360Z,6.15
2022-08-27T02:05:44.719Z,7.53
2022-08-27T02:08:03.724Z,10.48
2022-08-27T02:10:36.490Z,9.25
2022-08-27T02:13:06.155Z,8.90
2022-08-27T02:15:35.599Z,8.48
2022-08-27T02:18:05.598Z,9.18
2022-08-27T02:20:34.136Z,10.72
2022-08-27T02:23:02.614Z,9.28
2022-08-27T02:25:31.118Z,9.05
2022-08-27T02:28:00.086Z,10.00
2022-08-27T02:30:33.804Z,10.65
2022-08-27T02:33:02.861Z,7.60
2022-08-27T02:35:34.477Z,10.03
2022-08-27T02:38:02.413Z,11.15
2022-08-27T02:40:31.058Z,13.30
2022-08-27T02:42:59.084Z,10.10
2022-08-27T02:45:26.886Z,16.10
2022-08-27T02:47:54.701Z,9.80
2022-08-27T02:50:26.924Z,6.85
2022-08-27T02:52:52.336Z,10.90
2022-08-27T02:55:21.839Z,8.60
2022-08-27T02:57:50.231Z,6.72
2022-08-27T03:00:21.356Z,8.25
2022-08-27T03:02:49.797Z,13.08
2022-08-27T03:05:19.039Z,13.18
2022-08-27T03:07:47.416Z,14.25
2022-08-27T03:10:18.081Z,9.48
2022-08-27T03:12:45.823Z,9.63
2022-08-27T03:15:17.670Z,7.35
2022-08-27T03:18:04.082Z,11.03
2022-08-27T03:20:32.824Z,9.45
2022-08-27T03:23:00.784Z,11.43
2022-08-27T03:25:28.492Z,10.00
2022-08-27T03:27:56.200Z,11.65
2022-08-27T03:30:24.862Z,14.83
2022-08-27T03:32:52.636Z,9.45
2022-08-27T03:35:26.569Z,13.25
2022-08-27T03:38:19.038Z,10.60
2022-08-27T03:41:00.098Z,7.97
2022-08-27T03:43:39.775Z,7.12
2022-08-27T03:46:16.927Z,9.65
2022-08-27T03:48:44.911Z,9.63
2022-08-27T03:51:15.401Z,10.00
2022-08-27T03:53:44.422Z,10.90
2022-08-27T03:56:12.455Z,9.58
2022-08-27T03:58:40.627Z,10.68
2022-08-27T04:01:09.026Z,12.15
2022-08-27T04:03:37.279Z,11.30
2022-08-27T04:06:05.610Z,9.65
2022-08-27T04:08:33.089Z,11.15
2022-08-27T04:11:06.683Z,11.75
2022-08-27T04:13:34.542Z,14.83
2022-08-27T04:16:02.473Z,12.18
2022-08-27T04:18:29.971Z,10.48
2022-08-27T04:20:57.676Z,9.38
2022-08-27T04:23:25.238Z,9.13
2022-08-27T04:25:52.995Z,7.78
2022-08-27T04:28:20.701Z,9.65
2022-08-27T04:30:48.275Z,12.35
2022-08-27T04:33:16.649Z,16.80
2022-08-27T04:35:44.573Z,18.00
2022-08-27T04:38:12.555Z,18.67
2022-08-27T04:40:58.837Z,13.10
2022-08-27T04:43:27.813Z,18.15
2022-08-27T04:45:55.410Z,16.45
2022-08-27T04:48:23.168Z,13.62
2022-08-27T04:50:50.882Z,11.48
2022-08-27T04:53:19.670Z,8.83
2022-08-27T04:55:52.353Z,12.05
2022-08-27T04:58:21.898Z,9.68
2022-08-27T05:00:54.545Z,17.00
2022-08-27T05:03:24.185Z,8.68
2022-08-27T05:05:53.666Z,12.07
2022-08-27T05:08:21.534Z,18.35
2022-08-27T05:10:50.686Z,15.98
2022-08-27T05:13:20.632Z,19.23
2022-08-27T05:15:48.536Z,16.07
2022-08-27T05:18:16.265Z,13.93
2022-08-27T05:20:48.057Z,12.13
2022-08-27T05:23:18.371Z,11.85
2022-08-27T05:25:49.023Z,13.38
2022-08-27T05:28:21.072Z,15.13
2022-08-27T05:30:55.725Z,15.80
2022-08-27T05:33:25.735Z,17.02
2022-08-27T05:35:56.558Z,17.07
2022-08-27T05:38:27.126Z,17.00
2022-08-27T05:41:08.623Z,15.78
2022-08-27T05:43:37.999Z,20.40
2022-08-27T05:46:11.415Z,19.70
2022-08-27T05:48:41.595Z,10.48
2022-08-27T05:51:26.157Z,13.13
2022-08-27T05:56:25.999Z,10.82
2022-08-27T05:59:12.279Z,12.43
2022-08-27T06:01:44.974Z,13.38
2022-08-27T06:04:17.779Z,16.82
2022-08-27T06:06:46.236Z,14.00
2022-08-27T06:09:19.170Z,13.08
2022-08-27T06:11:47.745Z,11.63
2022-08-27T06:14:16.270Z,12.47
2022-08-27T06:16:44.186Z,11.12
2022-08-27T06:19:14.517Z,12.23
2022-08-27T06:21:42.850Z,13.13
2022-08-27T06:24:12.388Z,20.60
2022-08-27T06:26:43.838Z,16.27
2022-08-27T06:29:14.038Z,13.72
2022-08-27T06:31:42.504Z,20.85
2022-08-27T06:34:11.310Z,15.60
2022-08-27T06:36:41.624Z,13.20
2022-08-27T06:39:13.229Z,17.12
2022-08-27T06:41:43.824Z,16.77
2022-08-27T06:44:13.621Z,12.18
2022-08-27T06:46:42.564Z,20.65
2022-08-27T06:49:11.871Z,18.75
2022-08-27T06:51:42.437Z,18.87
2022-08-27T06:54:11.890Z,18.95
2022-08-27T06:56:41.154Z,17.27
2022-08-27T06:59:12.036Z,20.97
2022-08-27T07:01:43.702Z,20.68
2022-08-27T07:04:16.786Z,15.60
2022-08-27T07:06:44.838Z,17.27
2022-08-27T07:09:13.802Z,11.30
2022-08-27T07:11:41.688Z,15.18
2022-08-27T07:14:09.460Z,15.83
2022-08-27T07:16:39.628Z,16.95
2022-08-27T07:19:07.632Z,14.75
2022-08-27T07:21:36.288Z,13.85
2022-08-27T07:24:05.670Z,13.20
2022-08-27T07:26:37.912Z,13.18
2022-08-27T07:29:10.381Z,19.00
2022-08-27T07:31:38.936Z,15.08
2022-08-27T07:34:07.245Z,13.60
2022-08-27T07:36:37.192Z,14.07
2022-08-27T07:39:05.588Z,10.63
2022-08-27T07:41:38.889Z,16.80
2022-08-27T07:44:26.169Z,9.65
2022-08-27T07:46:56.180Z,11.20
2022-08-27T07:49:25.294Z,12.23
2022-08-27T07:51:53.221Z,18.37
2022-08-27T07:54:22.705Z,17.45
2022-08-27T07:56:55.362Z,13.50
2022-08-27T07:59:20.039Z,18.67
2022-08-27T08:01:50.045Z,15.98
2022-08-27T08:04:20.303Z,16.55
2022-08-27T08:06:48.440Z,13.08
2022-08-27T08:09:16.259Z,14.43
2022-08-27T08:11:44.384Z,12.75
2022-08-27T08:14:11.728Z,11.97
2022-08-27T08:16:39.730Z,13.70
2022-08-27T08:19:08.756Z,12.43
2022-08-27T08:21:38.147Z,12.65
2022-08-27T08:24:06.168Z,19.85
2022-08-27T08:26:33.931Z,11.18
2022-08-27T08:29:03.603Z,11.12
2022-08-27T08:31:31.533Z,14.63
2022-08-27T08:33:59.390Z,14.75
2022-08-27T08:36:27.058Z,14.07
2022-08-27T08:38:55.282Z,21.85
2022-08-27T08:41:59.020Z,20.40
2022-08-27T08:44:34.708Z,15.70
2022-08-27T08:47:25.795Z,10.18
2022-08-27T08:50:31.213Z,11.12
2022-08-27T08:53:20.962Z,16.70
2022-08-27T08:55:55.747Z,16.80
2022-08-27T08:58:52.651Z,13.85
2022-08-27T09:01:22.164Z,11.05
2022-08-27T09:03:55.534Z,13.18
2022-08-27T09:06:40.671Z,12.58
2022-08-27T09:09:22.331Z,16.10
2022-08-27T09:12:08.076Z,18.48
2022-08-27T09:15:01.884Z,18.52
2022-08-27T09:17:30.223Z,16.00
2022-08-27T09:19:58.286Z,18.10
2022-08-27T09:22:59.004Z,14.23
2022-08-27T09:25:34.102Z,14.65
2022-08-27T09:28:34.386Z,18.73
2022-08-27T09:31:09.043Z,16.45
2022-08-27T09:33:44.538Z,14.15
2022-08-27T09:36:11.526Z,16.73
2022-08-27T09:38:58.018Z,9.73
2022-08-27T09:41:27.943Z,12.30
2022-08-27T09:44:09.772Z,13.20
2022-08-27T09:46:37.741Z,10.23
2022-08-27T09:49:14.970Z,19.23
2022-08-27T09:51:45.810Z,10.40
2022-08-27T09:54:34.039Z,11.00
2022-08-27T09:57:02.036Z,15.83
2022-08-27T09:59:37.584Z,16.80
2022-08-27T10:02:19.501Z,14.95
2022-08-27T10:04:55.089Z,20.60
2022-08-27T10:07:43.371Z,14.60
2022-08-27T10:10:34.466Z,40.33
2022-08-27T10:13:13.017Z,10.60
2022-08-27T10:16:06.747Z,49.53
2022-08-27T10:18:44.218Z,15.83
2022-08-27T10:21:44.512Z,15.23
2022-08-27T10:24:41.376Z,11.53
2022-08-27T10:27:49.269Z,14.68
2022-08-27T10:30:21.543Z,18.77
2022-08-27T10:33:12.217Z,12.85
2022-08-27T10:35:54.574Z,11.03
2022-08-27T10:38:43.847Z,11.97
2022-08-27T10:41:23.215Z,11.43
2022-08-27T10:44:36.305Z,14.05
2022-08-27T10:47:21.192Z,21.05
2022-08-27T10:50:09.240Z,15.13
2022-08-27T10:53:00.455Z,13.10
2022-08-27T10:55:36.846Z,13.48
2022-08-27T10:58:27.599Z,18.02
2022-08-27T11:01:18.687Z,9.90
2022-08-27T11:03:51.825Z,26.40
2022-08-27T11:06:48.616Z,14.53
2022-08-27T11:09:34.573Z,13.68
2022-08-27T11:12:15.130Z,18.40
2022-08-27T11:15:00.004Z,16.35
2022-08-27T11:17:58.969Z,13.40
2022-08-27T11:20:35.342Z,14.28
2022-08-27T11:23:10.978Z,12.55
2022-08-27T11:26:02.224Z,14.47
2022-08-27T11:28:39.138Z,12.35
2022-08-27T11:31:40.111Z,12.05
2022-08-27T11:34:25.452Z,22.22
2022-08-27T11:37:24.409Z,23.07
2022-08-27T11:40:33.508Z,17.85
2022-08-27T11:43:11.869Z,20.40
2022-08-27T11:45:51.269Z,17.02
2022-08-27T11:48:23.934Z,15.93
2022-08-27T11:51:11.034Z,19.77
2022-08-27T11:53:52.341Z,13.85
2022-08-27T11:56:18.450Z,14.78
2022-08-27T11:58:52.858Z,19.77
2022-08-27T12:01:29.482Z,14.65
2022-08-27T12:04:21.141Z,22.52
2022-08-27T12:07:20.848Z,17.12
2022-08-27T12:10:16.892Z,16.90
2022-08-27T12:13:02.283Z,15.45
2022-08-27T12:16:16.134Z,13.95
2022-08-27T12:18:55.517Z,24.70
2022-08-27T12:21:32.049Z,14.65
2022-08-27T12:24:40.863Z,14.23
2022-08-27T12:27:28.663Z,12.70
2022-08-27T12:30:21.074Z,12.73
2022-08-27T12:32:52.036Z,16.57
2022-08-27T12:35:30.931Z,15.28
2022-08-27T12:38:13.414Z,15.53
2022-08-27T12:40:53.724Z,15.98
2022-08-27T12:43:26.888Z,15.25
2022-08-27T12:46:01.690Z,13.08
2022-08-27T12:48:46.968Z,16.55
2022-08-27T12:51:20.228Z,17.73
2022-08-27T12:54:24.570Z,13.95
2022-08-27T12:57:33.590Z,14.33
2022-08-27T13:00:25.502Z,9.48
2022-08-27T13:03:32.018Z,9.20
2022-08-27T13:06:01.190Z,11.55
2022-08-27T13:08:36.439Z,7.15
2022-08-27T13:11:12.732Z,8.53
2022-08-27T13:13:40.374Z,16.73
2022-08-27T13:16:08.202Z,12.23
2022-08-27T13:18:37.069Z,17.82
2022-08-27T13:21:16.128Z,11.22
2022-08-27T13:23:47.798Z,7.05
2022-08-27T13:26:21.180Z,9.57
2022-08-27T13:28:49.654Z,10.43
2022-08-27T13:31:19.787Z,10.10
2022-08-27T13:33:48.167Z,13.65
2022-08-27T13:36:32.136Z,10.80
2022-08-27T13:39:02.019Z,7.25
2022-08-27T13:41:37.999Z,7.60
2022-08-27T13:44:22.837Z,15.00
2022-08-27T13:47:04.434Z,10.50
2022-08-27T13:49:40.044Z,8.90
2022-08-27T13:52:28.316Z,10.63
2022-08-27T13:55:00.653Z,11.30
2022-08-27T13:57:32.722Z,10.82
2022-08-27T14:00:17.437Z,13.98
2022-08-27T14:02:55.401Z,13.93
2022-08-27T14:05:27.626Z,9.75
2022-08-27T14:08:00.827Z,10.28
2022-08-27T14:10:39.446Z,12.65
2022-08-27T14:13:15.134Z,12.37
2022-08-27T14:15:50.694Z,12.07
2022-08-27T14:18:55.096Z,11.50
2022-08-27T14:21:00.700Z,14.87
2022-08-27T14:23:30.784Z,11.45
2022-08-27T14:26:00.652Z,14.13
2022-08-27T14:28:30.901Z,19.52
2022-08-27T14:30:58.881Z,19.67
2022-08-27T14:33:26.924Z,14.47
2022-08-27T14:35:54.601Z,12.63
2022-08-27T14:38:26.094Z,12.58
2022-08-27T14:40:54.374Z,14.30
2022-08-27T14:43:22.957Z,14.07
2022-08-27T14:45:52.508Z,13.13
2022-08-27T14:48:28.751Z,12.37
2022-08-27T14:50:58.563Z,14.75
2022-08-27T14:53:26.456Z,16.65
2022-08-27T14:55:55.601Z,13.13
2022-08-27T14:58:23.282Z,13.32
2022-08-27T15:00:51.653Z,10.28
2022-08-27T15:03:19.395Z,16.30
2022-08-27T15:05:46.976Z,13.53
2022-08-27T15:08:15.742Z,15.70
2022-08-27T15:10:44.017Z,11.78
2022-08-27T15:13:11.853Z,12.55
2022-08-27T15:15:40.028Z,11.68
2022-08-27T15:18:07.985Z,11.93
2022-08-27T15:20:36.586Z,11.18
2022-08-27T15:23:04.278Z,10.35
2022-08-27T15:25:32.207Z,12.15
2022-08-27T15:28:00.149Z,11.65
2022-08-27T15:30:29.311Z,13.62
2022-08-27T15:32:57.114Z,9.53
2022-08-27T15:35:27.503Z,12.95
2022-08-27T15:37:57.291Z,10.88
2022-08-27T15:40:28.165Z,12.80
2022-08-27T15:43:03.482Z,10.40
2022-08-27T15:45:32.876Z,13.43
2022-08-27T15:48:01.313Z,11.48
2022-08-27T15:50:30.784Z,11.40
2022-08-27T15:53:03.341Z,17.10
2022-08-27T15:58:01.293Z,15.88
2022-08-27T16:00:33.237Z,10.65
2022-08-27T16:03:04.504Z,12.80
2022-08-27T16:05:36.141Z,18.70
2022-08-27T16:08:05.310Z,18.73
2022-08-27T16:10:33.927Z,18.00
2022-08-27T16:13:01.525Z,16.77
2022-08-27T16:15:31.360Z,12.85
2022-08-27T16:18:00.925Z,12.90
2022-08-27T16:20:28.821Z,9.30
2022-08-27T16:22:56.765Z,20.10
2022-08-27T16:25:24.502Z,11.70
2022-08-27T16:27:53.257Z,16.25
2022-08-27T16:30:21.884Z,13.65
2022-08-27T16:32:51.782Z,12.30
2022-08-27T16:35:20.492Z,16.12
2022-08-27T16:37:48.275Z,193.55
2022-08-27T16:40:16.266Z,192.07
2022-08-27T16:42:49.401Z,119.75
2022-08-27T16:45:22.084Z,100.53
2022-08-27T16:48:08.942Z,31.82
2022-08-27T16:50:36.931Z,19.07
2022-08-27T16:53:13.243Z,33.30
2022-08-27T16:55:43.571Z,77.82
2022-08-27T16:58:22.286Z,49.42
2022-08-27T17:00:53.697Z,49.77
2022-08-27T17:03:23.852Z,65.57
2022-08-27T17:05:52.072Z,84.00
2022-08-27T17:08:26.071Z,42.45
2022-08-27T17:10:55.039Z,76.05
2022-08-27T17:13:28.101Z,53.87
2022-08-27T17:15:56.829Z,60.20
2022-08-27T17:18:27.313Z,122.07
2022-08-27T17:20:56.887Z,56.77
2022-08-27T17:23:41.584Z,22.17
2022-08-27T17:26:12.236Z,21.02
2022-08-27T17:28:41.178Z,22.20
2022-08-27T17:31:11.940Z,15.20
2022-08-27T17:33:44.020Z,13.38
2022-08-27T17:36:14.765Z,16.62
2022-08-27T17:38:43.210Z,17.95
2022-08-27T17:41:34.291Z,30.17
2022-08-27T17:44:22.807Z,28.38
2022-08-27T17:46:54.425Z,21.93
2022-08-27T17:49:22.406Z,18.77
2022-08-27T17:51:57.014Z,17.45
2022-08-27T17:54:32.916Z,13.10
2022-08-27T17:57:03.548Z,16.20
2022-08-27T17:59:31.254Z,18.20
2022-08-27T18:02:00.450Z,12.80
2022-08-27T18:04:28.222Z,15.10
2022-08-27T18:06:55.650Z,14.58
2022-08-27T18:09:23.285Z,19.02
2022-08-27T18:11:50.915Z,16.82
2022-08-27T18:14:19.488Z,19.45
2022-08-27T18:16:47.463Z,19.00
2022-08-27T18:19:15.575Z,17.60
2022-08-27T18:21:46.797Z,14.85
2022-08-27T18:24:12.741Z,20.77
2022-08-27T18:26:40.735Z,22.37
2022-08-27T18:29:09.274Z,16.77
2022-08-27T18:31:37.645Z,20.60
2022-08-27T18:34:05.364Z,14.98
2022-08-27T18:36:33.333Z,13.30
2022-08-27T18:39:01.561Z,17.15
2022-08-27T18:41:31.426Z,12.80
2022-08-27T18:43:59.610Z,14.35
2022-08-27T18:46:27.563Z,10.18
2022-08-27T18:48:54.985Z,7.15
2022-08-27T18:51:22.906Z,12.30
2022-08-27T18:53:50.705Z,12.95
2022-08-27T18:56:19.626Z,13.22
2022-08-27T18:58:48.340Z,9.80
2022-08-27T19:01:20.491Z,10.48
2022-08-27T19:03:51.359Z,15.10
2022-08-27T19:06:21.582Z,15.63
2022-08-27T19:08:50.594Z,16.40
2022-08-27T19:11:18.398Z,10.00
2022-08-27T19:13:50.801Z,21.70
2022-08-27T19:16:22.854Z,17.75
2022-08-27T19:18:51.488Z,19.12
2022-08-27T19:21:19.200Z,17.10
2022-08-27T19:23:47.793Z,17.27
2022-08-27T19:26:19.222Z,16.07
2022-08-27T19:28:47.064Z,19.75
2022-08-27T19:31:15.677Z,19.42
2022-08-27T19:33:44.715Z,17.60
2022-08-27T19:36:16.107Z,11.83
2022-08-27T19:38:45.294Z,12.37
2022-08-27T19:41:13.468Z,13.08
2022-08-27T19:43:44.651Z,12.40
2022-08-27T19:46:11.988Z,9.10
2022-08-27T19:48:39.724Z,9.33
2022-08-27T19:51:07.606Z,10.23
2022-08-27T19:53:36.324Z,13.53
2022-08-27T19:56:07.348Z,8.55
2022-08-27T19:58:35.130Z,11.45
2022-08-27T20:01:02.858Z,9.63
2022-08-27T20:03:30.622Z,12.98
2022-08-27T20:05:59.115Z,12.53
2022-08-27T20:08:26.844Z,9.40
2022-08-27T20:10:54.478Z,11.85
2022-08-27T20:13:22.699Z,7.78
2022-08-27T20:15:50.720Z,7.83
2022-08-27T20:18:21.167Z,12.95
2022-08-27T20:20:49.126Z,8.30
2022-08-27T20:23:16.597Z,14.55
2022-08-27T20:25:45.068Z,22.22
2022-08-27T20:28:37.892Z,27.00
2022-08-27T20:30:43.086Z,36.10
2022-08-27T20:33:12.516Z,35.35
2022-08-27T20:35:40.203Z,31.48
2022-08-27T20:38:08.034Z,22.48
2022-08-27T20:40:36.045Z,20.23
2022-08-27T20:43:04.348Z,18.98
2022-08-27T20:45:32.316Z,18.80
2022-08-27T20:48:01.783Z,15.80
2022-08-27T20:50:31.407Z,11.95
2022-08-27T20:53:00.139Z,12.60
2022-08-27T20:55:28.635Z,8.43
2022-08-27T20:58:15.084Z,7.87
2022-08-27T21:00:43.713Z,18.32
2022-08-27T21:03:14.075Z,10.25
2022-08-27T21:05:43.863Z,9.13
2022-08-27T21:08:11.824Z,12.13
2022-08-27T21:10:54.434Z,9.23
2022-08-27T21:13:24.663Z,7.47
2022-08-27T21:15:54.717Z,14.60
2022-08-27T21:18:22.134Z,10.45
2022-08-27T21:20:51.695Z,9.55
2022-08-27T21:23:19.640Z,12.15
2022-08-27T21:25:47.394Z,12.50
2022-08-27T21:28:15.150Z,10.45
2022-08-27T21:30:42.644Z,11.33
2022-08-27T21:33:10.310Z,7.75
2022-08-27T21:35:38.653Z,10.72
2022-08-27T21:38:09.218Z,10.95
2022-08-27T21:40:36.988Z,11.33
2022-08-27T21:43:05.361Z,13.48
2022-08-27T21:45:32.934Z,20.15
2022-08-27T21:48:00.787Z,17.23
2022-08-27T21:50:28.649Z,16.85
2022-08-27T21:52:56.237Z,11.88
2022-08-27T21:55:23.880Z,18.42
2022-08-27T21:57:51.678Z,11.43
2022-08-27T22:00:32.302Z,11.35
2022-08-27T22:03:00.288Z,8.98
2022-08-27T22:05:28.242Z,9.38
2022-08-27T22:07:55.857Z,9.83
2022-08-27T22:10:23.309Z,10.60
2022-08-27T22:12:50.809Z,11.30
2022-08-27T22:15:20.166Z,8.88
2022-08-27T22:17:51.468Z,10.20
2022-08-27T22:20:20.251Z,10.68
2022-08-27T22:22:48.387Z,9.78
2022-08-27T22:25:17.068Z,10.35
2022-08-27T22:27:45.001Z,8.53
2022-08-27T22:30:13.705Z,7.15
2022-08-27T22:32:41.815Z,10.55
2022-08-27T22:35:11.472Z,10.58
2022-08-27T22:37:39.568Z,10.98
2022-08-27T22:40:19.124Z,6.45
2022-08-27T22:42:40.906Z,7.55
2022-08-27T22:45:10.277Z,6.28
2022-08-27T22:47:39.554Z,10.80
2022-08-27T22:50:09.689Z,10.18
2022-08-27T22:52:41.114Z,14.78
2022-08-27T22:55:12.942Z,17.92
2022-08-27T22:57:41.137Z,12.78
2022-08-27T23:00:17.331Z,14.13
2022-08-27T23:02:45.587Z,11.53
2022-08-27T23:05:15.344Z,13.15
2022-08-27T23:07:44.534Z,9.50
2022-08-27T23:10:16.765Z,9.78
2022-08-27T23:12:46.083Z,11.53
2022-08-27T23:15:18.031Z,7.87
2022-08-27T23:17:45.476Z,11.25
2022-08-27T23:20:13.749Z,11.08
2022-08-27T23:22:41.766Z,8.33
2022-08-27T23:25:30.072Z,12.13
2022-08-27T23:27:59.743Z,10.28
2022-08-27T23:30:28.069Z,9.43
2022-08-27T23:32:56.501Z,9.20
2022-08-27T23:35:26.831Z,13.08
2022-08-27T23:37:55.365Z,11.00
2022-08-27T23:40:23.638Z,10.28
2022-08-27T23:42:52.209Z,9.40
2022-08-27T23:45:23.504Z,8.80
2022-08-27T23:47:51.338Z,6.85
2022-08-27T23:50:19.890Z,10.70
2022-08-27T23:52:49.325Z,7.67
2022-08-27T23:55:16.848Z,10.60
2022-08-27T23:57:44.526Z,10.90
